Time;durP1;ratioP1;P1;durP2;ratioP2;P2;SDS_P1;SDS_P2;PMS_P1;PMS_P2;Temp;Humidity;BMP_temperature;BMP_pressure;BME280_temperature;BME280_humidity;BME280_pressure;Samples;Min_cycle;Max_cycle;Signal;HPM_P1;HPM_P2
2021/08/28 00:00:37;;;;;;;3.60;2.90;;;;;;;13.73;97.59;96723.72;5013729;28;20263;-62
2021/08/28 00:03:02;;;;;;;3.23;3.00;;;;;;;13.86;96.49;96722.56;5012754;28;21056;-62
2021/08/28 00:05:28;;;;;;;5.73;4.03;;;;;;;13.84;96.36;96727.25;5012751;28;20207;-62
2021/08/28 00:07:55;;;;;;;4.03;3.63;;;;;;;13.76;97.51;96730.34;5012635;28;20179;-62
2021/08/28 00:10:21;;;;;;;4.47;3.20;;;;;;;13.94;96.66;96722.88;5013127;28;20183;-62
2021/08/28 00:12:47;;;;;;;3.60;3.30;;;;;;;13.91;96.88;96720.75;5012630;28;20195;-62
2021/08/28 00:15:12;;;;;;;4.17;3.43;;;;;;;13.98;96.48;96723.19;5013519;28;20182;-62
2021/08/28 00:17:39;;;;;;;6.73;3.13;;;;;;;14.08;95.89;96723.28;5012944;28;20203;-62
2021/08/28 00:20:08;;;;;;;4.00;3.57;;;;;;;13.98;96.04;96716.09;5012913;28;20215;-63
2021/08/28 00:22:34;;;;;;;3.37;3.00;;;;;;;13.96;96.35;96720.81;5012059;28;20544;-63
2021/08/28 00:25:00;;;;;;;4.10;3.10;;;;;;;14.03;96.37;96717.97;5012140;28;20179;-63
2021/08/28 00:27:25;;;;;;;5.73;3.20;;;;;;;13.98;96.13;96720.56;5013299;28;20755;-62
2021/08/28 00:29:50;;;;;;;5.03;3.17;;;;;;;14.04;96.10;96719.56;5012247;28;20180;-63
2021/08/28 00:32:16;;;;;;;4.17;2.70;;;;;;;13.97;95.66;96719.78;5012545;28;20180;-63
2021/08/28 00:34:42;;;;;;;3.23;2.83;;;;;;;13.84;97.20;96724.63;5012120;28;20184;-65
2021/08/28 00:37:07;;;;;;;3.00;2.80;;;;;;;13.72;97.58;96722.94;5012624;28;20191;-62
2021/08/28 00:39:33;;;;;;;6.37;3.07;;;;;;;13.76;97.36;96728.53;5013146;28;20190;-62
2021/08/28 00:41:59;;;;;;;3.80;2.83;;;;;;;13.92;96.42;96727.63;5011935;28;20277;-62
2021/08/28 00:44:25;;;;;;;3.10;2.90;;;;;;;13.97;95.62;96722.41;5011428;28;20179;-63
2021/08/28 00:46:51;;;;;;;3.87;2.90;;;;;;;13.98;95.99;96728.47;5011645;28;20183;-63
2021/08/28 00:49:16;;;;;;;3.90;2.90;;;;;;;13.82;96.68;96724.09;5012821;28;20553;-62
2021/08/28 00:51:43;;;;;;;4.93;3.00;;;;;;;13.98;95.32;96724.00;5012392;28;20207;-65
2021/08/28 00:54:09;;;;;;;4.17;2.80;;;;;;;13.88;95.43;96717.81;5017865;28;20270;-62
2021/08/28 00:56:35;;;;;;;5.50;3.17;;;;;;;13.88;95.37;96726.50;5032497;28;20171;-62
2021/08/28 00:59:00;;;;;;;5.90;3.10;;;;;;;13.84;95.50;96722.78;5031488;28;20210;-62
2021/08/28 01:01:32;;;;;;;3.10;2.90;;;;;;;13.78;95.76;96715.06;5031893;28;20264;-64
2021/08/28 01:03:59;;;;;;;2.83;2.60;;;;;;;13.73;96.37;96710.56;5031727;28;20170;-62
2021/08/28 01:06:46;;;;;;;4.60;2.50;;;;;;;13.67;96.49;96712.34;5031269;28;20179;-62
2021/08/28 01:09:28;;;;;;;3.07;2.77;;;;;;;13.67;96.77;96720.25;5032150;28;20647;-62
2021/08/28 01:12:15;;;;;;;5.10;2.80;;;;;;;13.75;96.40;96711.13;5031539;28;20195;-62
2021/08/28 01:14:44;;;;;;;3.03;2.80;;;;;;;13.64;96.50;96714.69;5032034;28;20178;-62
2021/08/28 01:17:13;;;;;;;3.00;2.73;;;;;;;13.79;95.58;96709.56;5031878;28;20401;-62
2021/08/28 01:19:57;;;;;;;4.97;2.47;;;;;;;13.66;96.93;96707.31;5032009;28;20214;-62
2021/08/28 01:22:24;;;;;;;2.40;2.20;;;;;;;13.72;96.46;96708.97;5032119;28;20199;-62
2021/08/28 01:24:50;;;;;;;4.83;2.20;;;;;;;13.84;95.66;96711.47;5031022;28;20186;-62
2021/08/28 01:27:34;;;;;;;2.30;2.10;;;;;;;13.84;95.27;96717.53;5031927;28;20183;-62
2021/08/28 01:30:00;;;;;;;2.63;2.40;;;;;;;13.65;96.07;96714.41;5030987;28;20167;-62
2021/08/28 01:32:26;;;;;;;6.03;2.83;;;;;;;13.69;96.37;96715.53;5031752;28;20232;-62
2021/08/28 01:34:54;;;;;;;2.67;2.47;;;;;;;13.57;96.13;96717.50;5030832;28;20636;-62
2021/08/28 01:37:19;;;;;;;2.70;2.50;;;;;;;13.81;95.30;96714.59;5031813;28;20252;-61
2021/08/28 01:39:46;;;;;;;4.97;3.17;;;;;;;13.65;96.08;96713.66;5031058;28;20179;-64
2021/08/28 01:42:13;;;;;;;2.93;2.73;;;;;;;13.38;97.65;96716.22;5031388;28;20229;-62
2021/08/28 01:44:46;;;;;;;3.63;3.30;;;;;;;13.67;96.48;96712.34;5031200;28;20240;-62
2021/08/28 01:47:14;;;;;;;2.60;2.40;;;;;;;13.60;96.15;96708.31;5031261;28;20687;-62
2021/08/28 01:49:41;;;;;;;6.00;3.10;;;;;;;13.54;96.66;96704.06;5031653;28;20210;-62
2021/08/28 01:52:07;;;;;;;3.87;3.23;;;;;;;13.70;95.96;96706.59;5030663;28;20277;-62
2021/08/28 01:54:32;;;;;;;4.07;2.70;;;;;;;13.57;96.43;96708.81;5018020;28;20195;-62
2021/08/28 01:56:58;;;;;;;4.40;2.73;;;;;;;13.57;96.15;96714.88;5010813;28;20679;-61
2021/08/28 01:59:23;;;;;;;3.37;2.67;;;;;;;13.73;96.13;96713.19;5011506;28;20175;-62
2021/08/28 02:01:49;;;;;;;4.27;3.00;;;;;;;13.86;94.75;96709.38;5010858;28;20230;-62
2021/08/28 02:04:14;;;;;;;3.40;3.10;;;;;;;13.89;94.29;96712.31;5011344;28;20194;-62
2021/08/28 02:06:57;;;;;;;3.93;2.90;;;;;;;13.87;94.53;96708.34;5011352;28;20207;-62
2021/08/28 02:09:45;;;;;;;3.30;3.00;;;;;;;13.82;95.11;96708.28;5011855;28;20179;-62
2021/08/28 02:12:23;;;;;;;3.80;3.30;;;;;;;13.83;95.14;96707.22;5011792;28;20183;-62
2021/08/28 02:15:05;;;;;;;3.70;3.27;;;;;;;13.73;95.20;96710.56;5010767;28;20534;-62
2021/08/28 02:17:33;;;;;;;3.60;3.30;;;;;;;13.74;95.59;96705.06;5011393;28;20290;-61
2021/08/28 02:20:03;;;;;;;3.97;3.47;;;;;;;13.92;94.54;96711.03;5010601;28;20187;-62
2021/08/28 02:22:33;;;;;;;4.13;3.77;;;;;;;13.73;95.42;96711.34;5011346;28;20170;-62
2021/08/28 02:25:10;;;;;;;5.03;3.93;;;;;;;13.83;95.50;96704.59;5010952;28;20183;-62
2021/08/28 02:27:53;;;;;;;6.00;5.07;;;;;;;13.73;95.96;96713.19;5011621;28;20163;-61
2021/08/28 02:30:19;;;;;;;6.03;5.10;;;;;;;13.64;96.61;96715.50;5011632;28;20179;-61
2021/08/28 02:32:47;;;;;;;5.37;4.87;;;;;;;13.40;98.33;96713.34;5010803;28;20279;-64
2021/08/28 02:35:14;;;;;;;5.40;4.90;;;;;;;13.64;96.78;96715.50;5011209;28;20258;-62
2021/08/28 02:37:40;;;;;;;8.47;5.27;;;;;;;13.39;98.11;96714.38;5011423;28;20612;-62
2021/08/28 02:40:10;;;;;;;5.50;4.97;;;;;;;13.51;98.27;96704.53;5010438;28;20194;-62
2021/08/28 02:42:38;;;;;;;6.20;4.87;;;;;;;13.64;97.41;96702.31;5011542;28;20231;-62
2021/08/28 02:45:05;;;;;;;9.13;5.73;;;;;;;13.78;96.43;96710.59;5010501;28;20241;-62
2021/08/28 02:47:32;;;;;;;6.20;5.60;;;;;;;13.70;96.36;96709.22;5011136;28;20278;-62
2021/08/28 02:49:59;;;;;;;7.70;5.80;;;;;;;13.63;97.21;96699.94;5010342;28;20175;-62
2021/08/28 02:52:27;;;;;;;8.20;6.60;;;;;;;13.55;97.67;96703.78;5011376;28;20262;-63
2021/08/28 02:54:57;;;;;;;7.87;6.40;;;;;;;13.55;97.78;96702.97;5029720;28;20631;-62
2021/08/28 02:57:24;;;;;;;7.10;6.37;;;;;;;13.78;96.64;96707.19;5033101;28;20743;-62
2021/08/28 02:59:50;;;;;;;7.37;6.57;;;;;;;13.78;96.59;96701.91;5033780;28;20179;-61
2021/08/28 03:02:17;;;;;;;7.97;6.77;;;;;;;13.69;96.98;96707.63;5034351;28;20229;-62
2021/08/28 03:04:43;;;;;;;7.20;6.47;;;;;;;13.85;96.42;96702.50;5033937;28;20191;-65
2021/08/28 03:07:10;;;;;;;9.23;7.53;;;;;;;13.72;96.55;96701.84;5033971;28;20187;-62
2021/08/28 03:09:37;;;;;;;10.70;7.53;;;;;;;13.56;97.54;96705.38;5034063;28;20650;-62
2021/08/28 03:12:02;;;;;;;8.87;7.73;;;;;;;13.72;96.60;96711.59;5065213;28;20628;-62
2021/08/28 03:14:28;;;;;;;10.37;8.17;;;;;;;13.44;98.48;96709.19;5033983;28;20194;-62
2021/08/28 03:16:56;;;;;;;11.23;8.00;;;;;;;13.80;97.00;96697.19;5033216;28;20662;-62
2021/08/28 03:19:24;;;;;;;11.67;7.87;;;;;;;13.78;96.61;96696.63;5034035;28;20186;-62
2021/08/28 03:21:51;;;;;;;10.73;8.87;;;;;;;13.71;96.82;96699.47;5033312;28;20186;-62
2021/08/28 03:24:20;;;;;;;11.07;8.77;;;;;;;13.84;96.73;96700.91;5032707;28;20566;-62
2021/08/28 03:26:47;;;;;;;12.83;8.43;;;;;;;13.80;96.71;96703.25;5033172;28;20194;-65
2021/08/28 03:29:14;;;;;;;11.53;9.17;;;;;;;13.59;97.94;96697.00;5033928;28;20191;-62
2021/08/28 03:31:40;;;;;;;10.17;8.83;;;;;;;13.59;98.38;96698.84;5034090;28;20183;-63
2021/08/28 03:34:06;;;;;;;12.30;9.43;;;;;;;13.57;98.26;96693.81;5032878;28;20174;-62
2021/08/28 03:36:32;;;;;;;11.87;8.43;;;;;;;13.50;99.05;96692.41;5033936;28;20327;-62
2021/08/28 03:39:00;;;;;;;13.53;9.10;;;;;;;13.54;98.71;96690.88;5033159;28;20249;-62
2021/08/28 03:41:25;;;;;;;13.10;10.50;;;;;;;13.44;99.22;96688.13;5033357;28;20230;-62
2021/08/28 03:43:51;;;;;;;12.17;9.60;;;;;;;13.49;99.11;96694.22;5033107;28;20193;-62
2021/08/28 03:46:16;;;;;;;10.37;9.27;;;;;;;13.27;100.00;96688.19;5033510;28;20217;-62
2021/08/28 03:48:42;;;;;;;13.27;9.80;;;;;;;13.51;99.48;96694.78;5033640;28;20224;-61
2021/08/28 03:51:07;;;;;;;13.43;11.13;;;;;;;13.36;100.00;96692.00;5031212;28;20635;-62
2021/08/28 03:53:33;;;;;;;12.77;10.30;;;;;;;13.36;100.00;96699.09;5020292;28;20195;-62
2021/08/28 03:55:59;;;;;;;12.47;9.40;;;;;;;13.51;99.73;96697.44;5012688;28;20222;-62
2021/08/28 03:58:25;;;;;;;11.27;9.30;;;;;;;13.76;98.02;96706.66;5013686;28;20195;-62
2021/08/28 04:00:51;;;;;;;15.03;10.80;;;;;;;13.66;97.86;96700.22;5013097;28;20399;-62
2021/08/28 04:03:17;;;;;;;12.13;9.80;;;;;;;13.66;98.51;96702.06;5013478;28;20176;-62
2021/08/28 04:05:43;;;;;;;12.37;10.17;;;;;;;13.55;99.15;96703.78;5044000;28;20245;-62
2021/08/28 04:08:09;;;;;;;11.70;9.97;;;;;;;13.48;99.37;96695.31;5011406;28;20529;-62
2021/08/28 04:10:34;;;;;;;14.73;10.90;;;;;;;13.49;99.41;96694.22;5013479;28;20643;-61
2021/08/28 04:12:59;;;;;;;13.63;10.23;;;;;;;13.27;100.00;96701.34;5012668;28;20183;-62
2021/08/28 04:15:25;;;;;;;12.87;9.87;;;;;;;13.00;100.00;96703.09;5013194;28;20233;-62
2021/08/28 04:17:50;;;;;;;13.13;10.60;;;;;;;13.08;100.00;96700.03;5012471;28;20671;-62
2021/08/28 04:20:16;;;;;;;17.17;11.50;;;;;;;12.82;100.00;96706.78;5013165;28;20271;-62
2021/08/28 04:22:41;;;;;;;16.23;10.77;;;;;;;13.20;100.00;96700.75;5013334;28;20258;-61
2021/08/28 04:25:08;;;;;;;17.33;11.20;;;;;;;13.03;100.00;96699.97;5044134;28;20267;-61
2021/08/28 04:27:34;;;;;;;15.20;11.60;;;;;;;13.14;100.00;96710.44;5013217;28;20183;-62
2021/08/28 04:29:59;;;;;;;15.47;11.40;;;;;;;13.37;100.00;96704.13;5012529;28;20191;-62
2021/08/28 04:32:24;;;;;;;15.13;11.87;;;;;;;13.46;100.00;96704.47;5012805;28;20277;-62
2021/08/28 04:34:50;;;;;;;16.67;12.47;;;;;;;13.54;100.00;96702.19;5011926;28;20186;-62
2021/08/28 04:37:15;;;;;;;14.27;11.60;;;;;;;13.60;100.00;96706.47;5012747;28;20517;-62
2021/08/28 04:39:41;;;;;;;18.33;11.97;;;;;;;13.30;100.00;96709.56;5044943;28;20546;-62
2021/08/28 04:42:07;;;;;;;19.83;11.90;;;;;;;13.05;100.00;96708.41;5011969;28;20668;-62
2021/08/28 04:44:32;;;;;;;13.63;11.20;;;;;;;13.32;100.00;96706.66;5012870;28;20180;-62
2021/08/28 04:46:58;;;;;;;17.40;12.03;;;;;;;13.31;100.00;96713.81;5012053;28;20194;-62
2021/08/28 04:49:23;;;;;;;16.50;12.83;;;;;;;13.13;100.00;96713.28;5012318;28;20175;-61
2021/08/28 04:51:49;;;;;;;17.10;12.57;;;;;;;13.16;100.00;96715.44;5013741;28;20191;-64
2021/08/28 04:54:14;;;;;;;17.43;12.53;;;;;;;13.22;100.00;96712.63;5032199;28;20228;-62
2021/08/28 04:56:39;;;;;;;16.63;11.57;;;;;;;13.20;100.00;96713.91;5032110;28;20543;-61
2021/08/28 04:59:05;;;;;;;17.17;12.30;;;;;;;13.29;100.00;96710.59;5031602;28;20174;-61
2021/08/28 05:01:30;;;;;;;15.93;12.03;;;;;;;13.30;100.00;96708.78;5032653;28;20179;-62
2021/08/28 05:03:56;;;;;;;15.27;11.50;;;;;;;13.25;100.00;96725.31;5031424;28;20181;-62
2021/08/28 05:06:21;;;;;;;13.30;11.60;;;;;;;13.19;100.00;96720.22;5031374;28;20261;-62
2021/08/28 05:08:46;;;;;;;15.30;11.73;;;;;;;13.28;100.00;96729.28;5031599;28;20171;-65
2021/08/28 05:11:12;;;;;;;17.70;11.70;;;;;;;13.37;100.00;96724.38;5031669;28;20221;-62
2021/08/28 05:13:38;;;;;;;15.20;11.43;;;;;;;13.42;100.00;96724.44;5032125;28;20197;-62
2021/08/28 05:16:05;;;;;;;16.83;11.80;;;;;;;13.07;100.00;96727.38;5031146;28;20183;-62
2021/08/28 05:18:30;;;;;;;16.30;11.93;;;;;;;13.17;100.00;96730.19;5031353;28;20276;-62
2021/08/28 05:20:55;;;;;;;24.37;12.70;;;;;;;13.10;100.00;96732.16;5030695;28;20636;-62
2021/08/28 05:23:21;;;;;;;18.40;12.47;;;;;;;13.25;100.00;96735.84;5031846;28;20191;-62
2021/08/28 05:25:46;;;;;;;14.97;12.10;;;;;;;13.29;100.00;96736.13;5031540;28;20179;-65
2021/08/28 05:28:12;;;;;;;18.57;12.07;;;;;;;13.39;100.00;96730.97;5063513;28;20193;-62
2021/08/28 05:30:37;;;;;;;16.50;11.77;;;;;;;13.46;100.00;96741.34;5031913;28;20174;-62
2021/08/28 05:33:02;;;;;;;16.13;12.43;;;;;;;13.61;100.00;96734.41;5030930;28;20224;-62
2021/08/28 05:35:28;;;;;;;17.73;12.50;;;;;;;13.52;100.00;96743.78;5031717;28;20183;-62
2021/08/28 05:37:53;;;;;;;16.57;12.87;;;;;;;13.58;100.00;96737.53;5030715;28;20237;-62
2021/08/28 05:40:20;;;;;;;18.93;11.87;;;;;;;13.48;100.00;96742.69;5031568;28;20206;-62
2021/08/28 05:42:46;;;;;;;13.90;12.10;;;;;;;13.45;100.00;96740.53;5031039;28;20245;-64
2021/08/28 05:45:11;;;;;;;15.40;12.60;;;;;;;13.67;100.00;96743.16;5031497;28;20190;-61
2021/08/28 05:47:37;;;;;;;14.43;11.13;;;;;;;13.72;99.86;96746.63;5031445;28;20584;-61
2021/08/28 05:50:04;;;;;;;15.27;11.90;;;;;;;13.67;99.96;96745.78;5062670;28;20269;-61
2021/08/28 05:52:29;;;;;;;17.93;12.17;;;;;;;13.45;100.00;96748.44;5017881;28;20591;-61
2021/08/28 05:54:54;;;;;;;14.67;11.17;;;;;;;13.68;100.00;96742.13;5010894;28;20176;-62
2021/08/28 05:57:20;;;;;;;17.60;10.83;;;;;;;13.80;99.08;96748.06;5011781;28;20211;-62
2021/08/28 05:59:45;;;;;;;14.97;10.50;;;;;;;13.83;97.68;96749.38;5011540;28;20167;-61
2021/08/28 06:02:11;;;;;;;12.47;10.37;;;;;;;13.61;99.44;96749.41;5011438;28;20549;-62
2021/08/28 06:04:37;;;;;;;13.60;10.57;;;;;;;13.89;97.54;96743.13;5011650;28;20179;-62
2021/08/28 06:07:03;;;;;;;14.10;10.77;;;;;;;13.77;98.07;96745.91;5010124;28;20600;-62
2021/08/28 06:09:28;;;;;;;11.53;10.00;;;;;;;13.98;97.33;96746.91;5011384;28;20249;-62
2021/08/28 06:11:55;;;;;;;13.60;9.87;;;;;;;13.75;97.78;96748.00;5011098;28;20214;-62
2021/08/28 06:14:20;;;;;;;16.73;10.23;;;;;;;14.04;96.72;96756.47;5011854;28;20198;-62
2021/08/28 06:16:45;;;;;;;12.80;9.73;;;;;;;14.00;97.12;96750.88;5011484;28;20179;-62
2021/08/28 06:19:11;;;;;;;13.03;9.53;;;;;;;13.98;96.59;96750.34;5010879;28;20260;-62
2021/08/28 06:21:36;;;;;;;10.53;9.17;;;;;;;13.88;96.28;96749.44;5010287;28;20222;-61
2021/08/28 06:24:02;;;;;;;10.67;9.40;;;;;;;13.57;98.13;96753.56;5009480;28;20280;-62
2021/08/28 06:26:28;;;;;;;12.53;9.47;;;;;;;13.92;96.97;96747.91;5011431;28;20184;-62
2021/08/28 06:28:54;;;;;;;11.00;9.50;;;;;;;13.97;96.32;96756.66;5042681;28;20202;-63
2021/08/28 06:31:19;;;;;;;11.63;9.53;;;;;;;13.56;98.16;96758.06;5012053;28;20188;-62
2021/08/28 06:33:45;;;;;;;10.83;9.70;;;;;;;13.55;99.10;96753.81;5014956;28;20250;-62
2021/08/28 06:36:10;;;;;;;12.27;8.97;;;;;;;13.95;97.38;96752.66;5014308;28;20248;-62
2021/08/28 06:38:35;;;;;;;10.17;8.50;;;;;;;13.98;96.29;96753.00;5014678;28;20286;-60
2021/08/28 06:41:02;;;;;;;10.03;8.30;;;;;;;13.60;98.36;96753.88;5014114;28;20231;-61
2021/08/28 06:43:28;;;;;;;12.73;8.87;;;;;;;13.87;96.35;96759.19;5015027;28;20167;-62
2021/08/28 06:45:53;;;;;;;13.37;8.90;;;;;;;14.05;95.23;96756.19;5013897;28;20184;-62
2021/08/28 06:48:19;;;;;;;12.70;9.20;;;;;;;14.14;95.10;96754.72;5014876;28;20198;-61
2021/08/28 06:50:45;;;;;;;8.40;7.50;;;;;;;14.29;93.51;96753.25;5015605;28;20337;-61
2021/08/28 06:53:10;;;;;;;8.13;6.60;;;;;;;14.57;92.00;96763.53;5033809;28;20481;-63
2021/08/28 06:55:35;;;;;;;9.03;7.00;;;;;;;14.38;92.35;96754.41;5034323;28;20533;-62
2021/08/28 06:58:01;;;;;;;8.00;7.17;;;;;;;14.62;91.31;96754.88;5033811;28;20607;-62
2021/08/28 07:00:26;;;;;;;10.23;7.07;;;;;;;14.52;91.21;96760.88;5034776;28;20171;-62
2021/08/28 07:02:52;;;;;;;9.63;7.10;;;;;;;14.57;90.49;96753.78;5032649;28;20218;-65
2021/08/28 07:05:17;;;;;;;10.37;7.30;;;;;;;14.29;90.92;96753.25;5032994;28;20217;-63
2021/08/28 07:07:43;;;;;;;7.73;6.73;;;;;;;14.33;91.25;96747.22;5033137;28;20183;-62
2021/08/28 07:10:09;;;;;;;6.73;6.10;;;;;;;14.07;92.51;96748.84;5033161;28;20245;-62
2021/08/28 07:12:34;;;;;;;7.47;6.53;;;;;;;14.25;91.89;96752.19;5034397;28;20214;-62
2021/08/28 07:15:00;;;;;;;7.10;6.20;;;;;;;14.38;90.99;96742.03;5033435;28;20562;-62
2021/08/28 07:17:25;;;;;;;6.77;5.90;;;;;;;14.48;89.20;96750.03;5034188;28;20559;-62
2021/08/28 07:19:51;;;;;;;6.57;5.97;;;;;;;14.93;88.28;96739.00;5032402;28;20198;-66
2021/08/28 07:22:16;;;;;;;6.17;5.57;;;;;;;15.00;86.54;96741.41;5033563;28;20194;-62
2021/08/28 07:24:42;;;;;;;6.93;6.27;;;;;;;15.11;87.11;96744.91;5034259;28;20206;-62
2021/08/28 07:27:07;;;;;;;6.13;5.20;;;;;;;15.48;84.11;96742.19;5032004;28;20549;-62
2021/08/28 07:29:32;;;;;;;5.73;5.23;;;;;;;15.10;84.33;96749.38;5033688;28;20185;-62
2021/08/28 07:31:58;;;;;;;5.53;4.90;;;;;;;15.10;85.08;96752.03;5033141;28;20190;-62
2021/08/28 07:34:24;;;;;;;9.33;5.90;;;;;;;14.54;86.52;96745.59;5033962;28;20171;-62
2021/08/28 07:36:49;;;;;;;6.90;5.30;;;;;;;14.25;86.83;96758.25;5033623;28;20543;-63
2021/08/28 07:39:14;;;;;;;5.23;4.73;;;;;;;14.19;87.17;96747.91;5032963;28;20266;-61
2021/08/28 07:41:40;;;;;;;5.13;4.73;;;;;;;14.56;85.90;96751.41;5033320;28;20237;-62
2021/08/28 07:44:06;;;;;;;6.20;5.27;;;;;;;14.37;85.89;96756.28;5031284;28;20270;-61
2021/08/28 07:46:31;;;;;;;5.00;4.60;;;;;;;14.49;85.64;96748.16;5033311;28;20664;-62
2021/08/28 07:48:56;;;;;;;6.27;5.00;;;;;;;14.58;85.11;96754.59;5033074;28;20674;-63
2021/08/28 07:51:22;;;;;;;5.73;5.00;;;;;;;14.81;85.33;96754.25;5031665;28;20240;-63
2021/08/28 07:53:47;;;;;;;10.40;6.10;;;;;;;14.22;88.29;96758.72;5033134;28;20182;-64
2021/08/28 07:56:13;;;;;;;6.73;6.13;;;;;;;14.00;90.37;96758.78;5032507;28;20788;-62
2021/08/28 07:58:38;;;;;;;7.87;6.27;;;;;;;14.15;89.90;96760.78;5033045;28;20194;-61
2021/08/28 08:01:03;;;;;;;5.63;5.13;;;;;;;14.43;87.32;96760.53;5030665;28;20217;-62
2021/08/28 08:03:29;;;;;;;5.47;4.97;;;;;;;14.48;85.54;96767.69;5032826;28;20263;-62
2021/08/28 08:05:54;;;;;;;4.87;4.37;;;;;;;14.87;84.05;96763.78;5030467;28;20239;-65
2021/08/28 08:08:20;;;;;;;4.67;4.27;;;;;;;15.28;82.04;96771.91;5032863;28;20187;-61
2021/08/28 08:10:45;;;;;;;4.33;3.93;;;;;;;15.86;77.23;96772.72;5033136;28;20175;-61
2021/08/28 08:13:10;;;;;;;4.13;3.73;;;;;;;15.49;79.04;96778.13;5032393;28;20187;-62
2021/08/28 08:15:36;;;;;;;3.53;3.23;;;;;;;15.25;79.52;96778.53;5033155;28;20186;-62
2021/08/28 08:18:01;;;;;;;3.43;3.13;;;;;;;15.39;78.75;96778.84;5032257;28;20207;-62
2021/08/28 08:20:27;;;;;;;3.97;3.60;;;;;;;15.32;79.28;96778.31;5032849;28;20182;-62
2021/08/28 08:22:53;;;;;;;3.90;3.50;;;;;;;15.53;80.33;96780.00;5032663;28;20600;-63
2021/08/28 08:25:19;;;;;;;3.50;3.20;;;;;;;14.96;79.01;96775.44;5032156;28;20555;-61
2021/08/28 08:27:44;;;;;;;3.83;3.50;;;;;;;14.88;80.85;96773.25;5031930;28;20183;-62
2021/08/28 08:30:10;;;;;;;4.40;3.97;;;;;;;15.18;80.63;96780.59;5032033;28;20187;-62
2021/08/28 08:32:36;;;;;;;3.03;2.83;;;;;;;14.88;79.90;96773.25;5032771;28;20197;-62
2021/08/28 08:35:02;;;;;;;2.80;2.60;;;;;;;14.84;78.27;96772.19;5031868;28;20528;-62
2021/08/28 08:37:28;;;;;;;2.77;2.57;;;;;;;14.88;79.11;96773.25;5032272;28;20293;-62
2021/08/28 08:39:53;;;;;;;2.77;2.57;;;;;;;15.13;78.89;96769.19;5032255;28;20185;-64
2021/08/28 08:42:23;;;;;;;3.17;2.37;;;;;;;15.40;78.02;96767.22;5030324;28;20230;-62
2021/08/28 08:44:48;;;;;;;2.27;2.17;;;;;;;15.42;77.50;96777.56;5032026;28;20182;-62
2021/08/28 08:47:16;;;;;;;4.03;2.43;;;;;;;15.92;75.01;96777.78;5031769;28;20248;-62
2021/08/28 08:49:42;;;;;;;4.17;2.50;;;;;;;15.61;75.02;96768.94;5031007;28;20640;-62
2021/08/28 08:52:10;;;;;;;2.43;2.27;;;;;;;15.51;77.18;96768.88;5043495;28;20289;-62
2021/08/28 08:54:36;;;;;;;4.57;2.60;;;;;;;15.51;75.21;96776.78;5011777;28;20222;-62
2021/08/28 08:57:02;;;;;;;2.43;2.33;;;;;;;15.18;77.17;96772.66;5010489;28;20238;-62
2021/08/28 08:59:28;;;;;;;2.60;2.50;;;;;;;15.04;77.75;96781.31;5011352;28;20191;-62
2021/08/28 09:01:54;;;;;;;2.40;2.20;;;;;;;15.23;77.68;96785.91;5012186;28;20179;-64
2021/08/28 09:04:19;;;;;;;2.20;2.03;;;;;;;15.60;76.27;96777.94;5011132;28;20577;-63
2021/08/28 09:06:46;;;;;;;2.53;2.03;;;;;;;15.89;75.39;96780.91;5011905;28;20262;-62
2021/08/28 09:09:13;;;;;;;3.07;2.77;;;;;;;15.47;75.99;96788.13;5011514;28;20190;-62
2021/08/28 09:11:38;;;;;;;2.70;2.53;;;;;;;15.24;75.79;96779.56;5012187;28;20190;-62
2021/08/28 09:14:22;;;;;;;2.40;2.23;;;;;;;15.33;77.32;96782.50;5011467;28;20180;-62
2021/08/28 09:16:49;;;;;;;2.47;2.27;;;;;;;15.10;77.36;96785.56;5011964;28;20179;-62
2021/08/28 09:19:16;;;;;;;2.63;2.43;;;;;;;15.18;77.79;96795.63;5011297;28;20215;-62
2021/08/28 09:21:42;;;;;;;2.50;2.30;;;;;;;15.25;77.89;96796.22;5011982;28;20271;-62
2021/08/28 09:24:11;;;;;;;3.30;2.90;;;;;;;14.94;78.64;96795.22;5011241;28;20242;-62
2021/08/28 09:26:39;;;;;;;2.53;2.20;;;;;;;15.24;79.75;96792.78;5011677;28;20547;-62
2021/08/28 09:29:06;;;;;;;3.00;2.80;;;;;;;15.27;79.38;96792.25;5011256;28;20183;-62
2021/08/28 09:31:38;;;;;;;2.70;2.50;;;;;;;15.27;79.46;96794.88;5012032;28;20213;-61
2021/08/28 09:34:24;;;;;;;3.20;3.00;;;;;;;15.14;81.59;96800.63;5011225;28;20277;-62
2021/08/28 09:36:54;;;;;;;5.87;3.43;;;;;;;15.34;82.15;96798.09;5011595;28;20175;-62
2021/08/28 09:39:20;;;;;;;3.37;3.07;;;;;;;15.26;84.19;96800.44;5011655;28;20187;-61
2021/08/28 09:41:53;;;;;;;4.17;2.97;;;;;;;14.92;85.72;96800.75;5011654;28;20265;-60
2021/08/28 09:44:20;;;;;;;3.30;2.80;;;;;;;14.75;86.19;96799.31;5011137;28;20617;-61
2021/08/28 09:46:46;;;;;;;3.17;2.77;;;;;;;14.79;86.90;96801.19;5011211;28;20179;-60
2021/08/28 09:49:11;;;;;;;3.83;3.30;;;;;;;14.85;87.39;96808.09;5010805;28;20179;-61
2021/08/28 09:51:38;;;;;;;5.13;3.77;;;;;;;14.32;87.54;96803.63;5030604;28;20187;-61
2021/08/28 09:54:03;;;;;;;4.43;2.60;;;;;;;14.10;88.90;96806.31;5031136;28;20238;-61
2021/08/28 09:56:29;;;;;;;2.93;2.73;;;;;;;14.08;91.42;96799.72;5031323;28;20261;-62
2021/08/28 09:58:56;;;;;;;4.17;3.87;;;;;;;14.06;90.74;96807.88;5028940;28;20189;-62
2021/08/28 10:01:22;;;;;;;4.87;4.47;;;;;;;13.74;94.62;96809.63;5029609;28;20183;-62
2021/08/28 10:04:00;;;;;;;4.47;4.13;;;;;;;13.82;94.89;96809.19;5031178;28;20175;-62
2021/08/28 10:06:26;;;;;;;4.97;3.63;;;;;;;13.88;93.40;96804.75;5032436;28;20186;-61
2021/08/28 10:08:52;;;;;;;4.40;3.70;;;;;;;13.97;94.79;96795.38;5034506;28;20247;-63
2021/08/28 10:11:20;;;;;;;3.50;3.30;;;;;;;14.13;93.06;96805.03;5034540;28;20183;-61
2021/08/28 10:13:50;;;;;;;3.63;3.33;;;;;;;14.12;95.93;96798.97;5035168;28;20270;-62
2021/08/28 10:16:16;;;;;;;3.70;3.40;;;;;;;13.91;96.45;96802.44;5034404;28;20283;-62
2021/08/28 10:18:48;;;;;;;3.50;3.10;;;;;;;13.82;96.37;96801.28;5035015;28;20206;-61
2021/08/28 10:21:13;;;;;;;3.03;2.83;;;;;;;14.09;97.62;96804.75;5034800;28;20631;-62
2021/08/28 10:23:42;;;;;;;3.83;2.90;;;;;;;13.62;96.55;96806.31;5035222;28;20183;-62
2021/08/28 10:26:10;;;;;;;2.70;2.50;;;;;;;13.62;100.00;96799.22;5034221;28;20333;-62
2021/08/28 10:28:39;;;;;;;3.00;2.80;;;;;;;14.10;98.76;96801.06;5033563;28;20182;-63
2021/08/28 10:31:05;;;;;;;5.70;3.13;;;;;;;14.59;98.10;96800.22;5034075;28;20175;-63
2021/08/28 10:33:30;;;;;;;3.57;2.93;;;;;;;14.38;95.41;96807.16;5031806;28;20206;-65
2021/08/28 10:35:56;;;;;;;2.90;2.70;;;;;;;14.72;95.58;96803.22;5033238;28;20179;-63
2021/08/28 10:38:23;;;;;;;3.77;2.70;;;;;;;14.74;94.60;96805.63;5034193;28;20211;-63
2021/08/28 10:40:54;;;;;;;3.13;2.93;;;;;;;14.96;94.68;96803.69;5034471;28;20281;-63
2021/08/28 10:43:21;;;;;;;3.00;2.80;;;;;;;14.96;93.08;96801.84;5033430;28;20170;-63
2021/08/28 10:45:47;;;;;;;2.33;2.23;;;;;;;14.99;90.57;96809.25;5032689;28;20174;-63
2021/08/28 10:48:14;;;;;;;2.77;2.57;;;;;;;14.96;89.94;96801.84;5033747;28;20175;-63
2021/08/28 10:50:42;;;;;;;2.30;2.20;;;;;;;15.17;90.38;96802.75;5032043;28;20257;-63
2021/08/28 10:53:09;;;;;;;2.50;2.40;;;;;;;15.58;89.98;96803.00;5033765;28;20232;-64
2021/08/28 10:55:38;;;;;;;2.97;2.50;;;;;;;15.47;87.29;96801.34;5033947;28;20636;-63
2021/08/28 10:58:14;;;;;;;2.40;2.30;;;;;;;15.65;89.23;96817.59;5033392;28;20200;-65
2021/08/28 11:00:48;;;;;;;2.30;2.20;;;;;;;15.77;86.39;96812.09;5033174;28;20213;-62
2021/08/28 11:03:30;;;;;;;2.40;2.30;;;;;;;15.40;86.19;96814.78;5029144;28;20174;-63
2021/08/28 11:06:17;;;;;;;2.30;2.10;;;;;;;15.08;87.48;96814.84;5033744;28;20210;-63
2021/08/28 11:08:51;;;;;;;2.77;2.53;;;;;;;15.20;84.86;96812.81;5034233;28;20275;-63
2021/08/28 11:11:35;;;;;;;1.97;1.87;;;;;;;15.21;85.54;96817.03;5033434;28;20189;-63
2021/08/28 11:14:00;;;;;;;2.03;1.93;;;;;;;15.47;83.38;96815.34;5033753;28;20179;-64
2021/08/28 11:16:44;;;;;;;3.03;1.83;;;;;;;14.99;83.51;96816.34;5032678;28;20175;-63
2021/08/28 11:19:25;;;;;;;1.90;1.80;;;;;;;15.33;82.64;96804.44;5033162;28;20186;-63
2021/08/28 11:21:52;;;;;;;1.90;1.80;;;;;;;15.80;80.92;96806.28;5031536;28;20542;-63
2021/08/28 11:24:26;;;;;;;1.40;1.40;;;;;;;16.29;76.66;96804.03;5032723;28;20554;-63
2021/08/28 11:26:57;;;;;;;1.53;1.53;;;;;;;16.52;74.16;96808.03;5033816;28;20163;-62